createdAt,value
2023-02-21T00:02:35.916Z,100841.97
2023-02-21T00:05:21.867Z,100846.09
2023-02-21T00:08:06.787Z,100837.97
2023-02-21T00:10:51.579Z,100845.63
2023-02-21T00:13:36.582Z,100844.66
2023-02-21T00:16:21.643Z,100850.06
2023-02-21T00:19:06.747Z,100865.09
2023-02-21T00:21:51.627Z,100850.53
2023-02-21T00:24:37.570Z,100861.47
2023-02-21T00:27:23.272Z,100858.63
2023-02-21T00:30:09.773Z,100858.91
2023-02-21T00:32:55.086Z,100861.00
2023-02-21T00:35:40.226Z,100861.16
2023-02-21T00:38:26.568Z,100871.91
2023-02-21T00:41:12.241Z,100860.22
2023-02-21T00:43:58.091Z,100872.69
2023-02-21T00:46:43.315Z,100876.84
2023-02-21T00:49:28.144Z,100872.69
2023-02-21T00:52:13.542Z,100882.06
2023-02-21T00:54:58.401Z,100876.03
2023-02-21T00:57:43.497Z,100880.78
2023-02-21T01:00:35.579Z,100880.78
2023-02-21T01:03:21.037Z,100877.94
2023-02-21T01:06:06.090Z,100883.03
2023-02-21T01:08:51.177Z,100886.47
2023-02-21T01:11:38.369Z,100885.22
2023-02-21T01:14:26.840Z,100894.56
2023-02-21T01:17:13.814Z,100888.56
2023-02-21T01:20:00.959Z,100887.78
2023-02-21T01:22:47.233Z,100891.59
2023-02-21T01:25:33.317Z,100900.28
2023-02-21T01:28:18.471Z,100893.31
2023-02-21T01:31:03.601Z,100902.34
2023-02-21T01:33:54.007Z,100897.59
2023-02-21T01:36:39.117Z,100888.56
2023-02-21T01:39:24.339Z,100895.34
2023-02-21T01:42:11.117Z,100901.88
2023-02-21T01:45:01.640Z,100909.13
2023-02-21T01:47:47.754Z,100903.44
2023-02-21T01:50:45.448Z,100904.25
2023-02-21T01:53:39.869Z,100902.34
2023-02-21T01:56:25.494Z,100904.72
2023-02-21T01:59:14.176Z,100899.50
2023-02-21T02:01:59.326Z,100895.34
2023-02-21T02:04:44.476Z,100898.53
2023-02-21T02:07:29.698Z,100899.31
2023-02-21T02:10:15.078Z,100897.72
2023-02-21T02:13:18.504Z,100898.53
2023-02-21T02:16:24.643Z,100902.16
2023-02-21T02:19:33.788Z,100894.88
2023-02-21T02:22:32.157Z,100886.78
2023-02-21T02:25:10.852Z,100882.53
2023-02-21T02:28:09.826Z,100881.09
2023-02-21T02:30:39.442Z,100878.56
2023-02-21T02:33:34.959Z,100888.38
2023-02-21T02:36:15.622Z,100874.44
2023-02-21T02:38:59.913Z,100879.81
2023-02-21T02:41:44.469Z,100875.06
2023-02-21T02:44:19.666Z,100873.34
2023-02-21T02:46:48.903Z,100881.72
2023-02-21T02:49:25.202Z,100873.34
2023-02-21T02:51:52.420Z,100875.72
2023-02-21T02:54:21.784Z,100878.88
2023-02-21T02:56:48.530Z,100880.13
2023-02-21T02:59:22.586Z,100876.31
2023-02-21T03:01:49.270Z,100872.53
2023-02-21T03:04:38.344Z,100875.38
2023-02-21T03:07:30.014Z,100875.72
2023-02-21T03:10:35.192Z,100876.97
2023-02-21T03:13:28.857Z,100884.75
2023-02-21T03:16:15.309Z,100895.34
2023-02-21T03:18:47.990Z,100886.31
2023-02-21T03:21:29.893Z,100889.97
2023-02-21T03:24:01.684Z,100888.69
2023-02-21T03:26:32.318Z,100885.34
2023-02-21T03:29:12.618Z,100891.25
2023-02-21T03:31:46.457Z,100873.94
2023-02-21T03:34:13.238Z,100880.47
2023-02-21T03:36:40.381Z,100876.50
2023-02-21T03:39:07.969Z,100891.88
2023-02-21T03:41:34.777Z,100883.16
2023-02-21T03:44:01.250Z,100882.19
2023-02-21T03:46:27.731Z,100896.28
2023-02-21T03:48:54.155Z,100896.28
2023-02-21T03:51:26.040Z,100891.88
2023-02-21T03:53:53.560Z,100906.44
2023-02-21T03:56:28.075Z,100900.75
2023-02-21T03:59:12.943Z,100897.09
2023-02-21T04:01:39.532Z,100896.00
2023-02-21T04:04:06.054Z,100891.88
2023-02-21T04:06:32.503Z,100895.03
2023-02-21T04:08:59.700Z,100890.09
2023-02-21T04:11:27.185Z,100898.66
2023-02-21T04:13:53.964Z,100908.03
2023-02-21T04:16:20.699Z,100895.22
2023-02-21T04:18:49.302Z,100896.28
2023-02-21T04:21:18.656Z,100902.81
2023-02-21T04:23:45.674Z,100895.03
2023-02-21T04:26:12.166Z,100902.00
2023-02-21T04:28:44.789Z,100905.66
2023-02-21T04:31:11.356Z,100905.19
2023-02-21T04:33:37.786Z,100912.16
2023-02-21T04:36:05.465Z,100894.72
2023-02-21T04:38:38.017Z,100904.25
2023-02-21T04:41:05.046Z,100904.84
2023-02-21T04:43:31.760Z,100904.06
2023-02-21T04:45:58.306Z,100904.84
2023-02-21T04:48:25.357Z,100903.75
2023-02-21T04:50:51.819Z,100909.94
2023-02-21T04:53:18.355Z,100903.28
2023-02-21T04:55:44.816Z,100906.94
2023-02-21T04:58:11.232Z,100910.56
2023-02-21T05:00:37.649Z,100902.16
2023-02-21T05:03:04.083Z,100909.78
2023-02-21T05:05:30.580Z,100909.00
2023-02-21T05:07:57.020Z,100900.91
2023-02-21T05:10:27.023Z,100904.53
2023-02-21T05:12:57.484Z,100905.69
2023-02-21T05:15:24.031Z,100913.75
2023-02-21T05:17:50.473Z,100918.16
2023-02-21T05:20:17.092Z,100902.03
2023-02-21T05:22:43.508Z,100919.94
2023-02-21T05:25:22.267Z,100904.91
2023-02-21T05:27:49.959Z,100909.31
2023-02-21T05:30:18.702Z,100912.16
2023-02-21T05:32:45.350Z,100895.53
2023-02-21T05:35:13.835Z,100906.75
2023-02-21T05:37:40.307Z,100913.44
2023-02-21T05:40:07.642Z,100906.75
2023-02-21T05:42:34.259Z,100909.31
2023-02-21T05:45:02.306Z,100915.31
2023-02-21T05:47:28.780Z,100908.84
2023-02-21T05:49:55.378Z,100922.31
2023-02-21T05:52:21.849Z,100923.09
2023-02-21T05:54:48.298Z,100920.72
2023-02-21T05:57:14.760Z,100918.16
2023-02-21T05:59:41.236Z,100917.56
2023-02-21T06:02:07.746Z,100910.25
2023-02-21T06:04:34.209Z,100916.31
2023-02-21T06:07:00.788Z,100912.81
2023-02-21T06:09:27.296Z,100926.13
2023-02-21T06:11:56.699Z,100924.88
2023-02-21T06:14:24.060Z,100930.56
2023-02-21T06:16:50.492Z,100926.28
2023-02-21T06:19:18.774Z,100941.97
2023-02-21T06:21:46.248Z,100940.88
2023-02-21T06:24:13.066Z,100949.41
2023-02-21T06:26:41.153Z,100951.78
2023-02-21T06:29:08.020Z,100947.81
2023-02-21T06:31:36.212Z,100960.03
2023-02-21T06:34:03.067Z,100961.63
2023-02-21T06:36:29.929Z,100965.09
2023-02-21T06:38:57.411Z,100972.41
2023-02-21T06:41:29.808Z,100990.13
2023-02-21T06:43:58.343Z,100983.66
2023-02-21T06:46:28.235Z,100992.22
2023-02-21T06:48:55.023Z,100992.00
2023-02-21T06:51:28.969Z,101004.88
2023-02-21T06:53:56.333Z,100999.34
2023-02-21T06:56:22.758Z,101000.94
2023-02-21T06:58:49.191Z,101006.28
2023-02-21T07:01:16.276Z,101005.50
2023-02-21T07:03:44.294Z,101011.53
2023-02-21T07:06:11.123Z,101006.16
2023-02-21T07:08:37.966Z,101007.41
2023-02-21T07:11:05.762Z,100991.38
2023-02-21T07:13:32.456Z,100999.66
2023-02-21T07:15:59.118Z,101001.72
2023-02-21T07:18:25.638Z,101014.38
2023-02-21T07:20:52.089Z,101031.03
2023-02-21T07:23:18.566Z,101025.78
2023-02-21T07:25:45.004Z,101027.53
2023-02-21T07:28:12.263Z,101033.56
2023-02-21T07:30:38.782Z,101023.84
2023-02-21T07:33:05.339Z,101033.88
2023-02-21T07:35:31.795Z,101040.88
2023-02-21T07:37:58.237Z,101046.56
2023-02-21T07:40:24.701Z,101046.56
2023-02-21T07:42:51.193Z,101031.03
2023-02-21T07:45:17.723Z,101035.63
2023-02-21T07:47:47.874Z,101031.94
2023-02-21T07:50:15.895Z,101044.03
2023-02-21T07:52:42.353Z,101044.03
2023-02-21T07:55:08.882Z,101038.03
2023-02-21T07:57:35.765Z,101046.56
2023-02-21T08:00:02.685Z,101043.34
2023-02-21T08:02:39.450Z,101048.97
2023-02-21T08:05:07.284Z,101059.56
2023-02-21T08:07:33.868Z,101053.06
2023-02-21T08:10:00.332Z,101058.28
2023-02-21T08:12:26.753Z,101058.78
2023-02-21T08:14:53.251Z,101064.31
2023-02-21T08:17:19.674Z,101067.16
2023-02-21T08:19:46.136Z,101067.00
2023-02-21T08:22:12.667Z,101070.00
2023-02-21T08:24:39.149Z,101070.00
2023-02-21T08:27:05.921Z,101070.84
2023-02-21T08:29:32.397Z,101073.22
2023-02-21T08:31:58.907Z,101074.94
2023-02-21T08:34:25.446Z,101084.63
2023-02-21T08:36:51.914Z,101081.44
2023-02-21T08:39:18.365Z,101078.56
2023-02-21T08:41:48.584Z,101089.34
2023-02-21T08:44:17.228Z,101089.03
2023-02-21T08:46:44.626Z,101079.69
2023-02-21T08:49:11.360Z,101084.13
2023-02-21T08:51:38.282Z,101088.41
2023-02-21T08:54:04.807Z,101094.94
2023-02-21T08:56:31.973Z,101083.34
2023-02-21T08:58:58.585Z,101098.56
2023-02-21T09:01:30.541Z,101092.22
2023-02-21T09:03:57.025Z,101108.25
2023-02-21T09:06:23.561Z,101095.72
2023-02-21T09:08:50.000Z,101102.06
2023-02-21T09:11:16.670Z,101110.63
2023-02-21T09:13:43.393Z,101086.84
2023-02-21T09:16:10.003Z,101097.94
2023-02-21T09:18:36.450Z,101093.81
2023-02-21T09:21:03.061Z,101101.09
2023-02-21T09:23:30.613Z,101104.28
2023-02-21T09:25:58.434Z,101110.00
2023-02-21T09:28:24.995Z,101111.56
2023-02-21T09:30:51.553Z,101107.44
2023-02-21T09:33:18.497Z,101108.22
2023-02-21T09:35:44.864Z,101120.78
2023-02-21T09:38:11.350Z,101118.88
2023-02-21T09:40:45.574Z,101118.69
2023-02-21T09:43:16.283Z,101131.72
2023-02-21T09:45:44.621Z,101126.00
2023-02-21T09:48:19.078Z,101134.88
2023-02-21T09:50:51.639Z,101138.03
2023-02-21T09:53:26.370Z,101137.41
2023-02-21T09:55:58.929Z,101140.44
2023-02-21T09:58:25.627Z,101142.03
2023-02-21T10:00:52.364Z,101149.31
2023-02-21T10:03:38.844Z,101147.41
2023-02-21T10:06:15.727Z,101158.19
2023-02-21T10:09:24.120Z,101150.13
2023-02-21T10:12:25.240Z,101150.13
2023-02-21T10:15:14.465Z,101152.19
2023-02-21T10:18:05.476Z,101159.94
2023-02-21T10:20:55.690Z,101167.06
2023-02-21T10:23:29.632Z,101161.38
2023-02-21T10:26:03.358Z,101154.88
2023-02-21T10:28:29.837Z,101154.88
2023-02-21T10:31:00.380Z,101157.25
2023-02-21T10:33:27.192Z,101155.34
2023-02-21T10:35:55.088Z,101155.03
2023-02-21T10:38:26.014Z,101170.28
2023-02-21T10:40:57.232Z,101157.25
2023-02-21T10:43:41.705Z,101167.06
2023-02-21T10:46:21.237Z,101165.50
2023-02-21T10:48:52.438Z,101166.75
2023-02-21T10:51:35.495Z,101161.84
2023-02-21T10:54:22.806Z,101166.28
2023-02-21T10:56:52.494Z,101165.50
2023-02-21T10:59:23.545Z,101172.00
2023-02-21T11:01:50.937Z,101168.66
2023-02-21T11:04:20.428Z,101168.66
2023-02-21T11:06:50.772Z,101168.66
2023-02-21T11:09:39.537Z,101175.63
2023-02-21T11:12:26.838Z,101171.06
2023-02-21T11:14:53.354Z,101170.28
2023-02-21T11:17:22.238Z,101166.13
2023-02-21T11:20:07.974Z,101165.81
2023-02-21T11:22:34.945Z,101179.94
2023-02-21T11:25:22.847Z,101177.84
2023-02-21T11:28:14.784Z,101174.69
2023-02-21T11:30:51.865Z,101171.38
2023-02-21T11:33:21.285Z,101176.59
2023-02-21T11:35:50.437Z,101179.75
2023-02-21T11:38:32.688Z,101181.06
2023-02-21T11:41:00.562Z,101175.34
2023-02-21T11:43:33.551Z,101173.75
2023-02-21T11:46:12.586Z,101178.81
2023-02-21T11:48:49.354Z,101171.53
2023-02-21T11:51:41.874Z,101170.72
2023-02-21T11:54:08.591Z,101164.22
2023-02-21T11:56:58.139Z,101168.22
2023-02-21T11:59:38.006Z,101166.13
2023-02-21T12:02:07.402Z,101163.91
2023-02-21T12:05:28.359Z,101166.44
2023-02-21T12:08:25.873Z,101160.75
2023-02-21T12:11:10.578Z,101159.47
2023-02-21T12:13:58.596Z,101167.56
2023-02-21T12:16:46.098Z,101161.69
2023-02-21T12:19:21.440Z,101158.84
2023-02-21T12:22:14.217Z,101162.47
2023-02-21T12:24:55.901Z,101162.34
2023-02-21T12:27:46.453Z,101156.28
2023-02-21T12:30:40.776Z,101163.91
2023-02-21T12:33:21.169Z,101163.44
2023-02-21T12:36:20.235Z,101157.72
2023-02-21T12:39:02.039Z,101164.88
2023-02-21T12:41:48.396Z,101160.28
2023-02-21T12:44:21.874Z,101157.72
2023-02-21T12:46:55.693Z,101157.25
2023-02-21T12:49:28.345Z,101155.50
2023-02-21T12:52:00.559Z,101157.88
2023-02-21T12:54:44.451Z,101153.75
2023-02-21T12:57:14.819Z,101152.78
2023-02-21T12:59:59.443Z,101148.22
2023-02-21T13:02:57.108Z,101151.84
2023-02-21T13:05:34.369Z,101147.72
2023-02-21T13:08:15.545Z,101157.88
2023-02-21T13:11:06.350Z,101159.78
2023-02-21T13:13:33.976Z,101150.41
2023-02-21T13:16:07.826Z,101156.91
2023-02-21T13:18:39.301Z,101153.56
2023-02-21T13:21:34.983Z,101151.19
2023-02-21T13:24:08.966Z,101154.34
2023-02-21T13:27:13.086Z,101154.84
2023-02-21T13:29:42.432Z,101148.16
2023-02-21T13:32:17.030Z,101144.22
2023-02-21T13:34:48.433Z,101144.84
2023-02-21T13:37:26.825Z,101148.97
2023-02-21T13:40:06.517Z,101154.53
2023-02-21T13:42:36.284Z,101142.31
2023-02-21T13:45:13.083Z,101146.25
2023-02-21T13:47:57.574Z,101145.94
2023-02-21T13:50:46.401Z,101142.31
2023-02-21T13:53:22.346Z,101137.97
2023-02-21T13:56:09.035Z,101138.97
2023-02-21T13:58:44.861Z,101140.38
2023-02-21T14:01:40.748Z,101141.31
2023-02-21T14:05:01.797Z,101141.66
2023-02-21T14:07:50.121Z,101141.03
2023-02-21T14:10:44.321Z,101142.44
2023-02-21T14:13:21.733Z,101141.97
2023-02-21T14:15:56.584Z,101143.88
2023-02-21T14:18:30.501Z,101146.72
2023-02-21T14:20:58.377Z,101143.38
2023-02-21T14:23:36.948Z,101139.75
2023-02-21T14:26:04.848Z,101147.34
2023-02-21T14:28:51.225Z,101137.66
2023-02-21T14:31:58.092Z,101143.38
2023-02-21T14:34:39.307Z,101135.28
2023-02-21T14:37:16.800Z,101148.13
2023-02-21T14:39:47.428Z,101140.66
2023-02-21T14:42:51.495Z,101156.22
2023-02-21T14:45:36.294Z,101153.38
2023-02-21T14:48:34.306Z,101148.94
2023-02-21T14:51:38.376Z,101155.44
2023-02-21T14:54:45.709Z,101140.66
2023-02-21T14:57:24.029Z,101137.78
2023-02-21T15:00:16.252Z,101146.06
2023-02-21T15:02:52.757Z,101150.53
2023-02-21T15:05:40.446Z,101147.66
2023-02-21T15:08:16.131Z,101160.34
2023-02-21T15:10:45.217Z,101157.81
2023-02-21T15:13:20.682Z,101153.84
2023-02-21T15:15:47.299Z,101155.44
2023-02-21T15:18:37.052Z,101162.13
2023-02-21T15:21:11.593Z,101151.47
2023-02-21T15:23:40.114Z,101161.31
2023-02-21T15:26:29.687Z,101155.28
2023-02-21T15:29:13.772Z,101152.13
2023-02-21T15:31:47.758Z,101156.25
2023-02-21T15:34:31.983Z,101151.78
2023-02-21T15:37:19.304Z,101153.88
2023-02-21T15:39:54.548Z,101152.75
2023-02-21T15:42:23.731Z,101154.34
2023-02-21T15:44:58.786Z,101158.47
2023-02-21T15:47:30.364Z,101152.94
2023-02-21T15:50:13.731Z,101158.81
2023-02-21T15:52:51.211Z,101165.16
2023-02-21T15:55:21.207Z,101159.44
2023-02-21T15:57:58.081Z,101156.25
2023-02-21T16:00:28.259Z,101161.97
2023-02-21T16:03:25.761Z,101165.31
2023-02-21T16:05:52.912Z,101161.97
2023-02-21T16:08:19.401Z,101165.31
2023-02-21T16:10:45.946Z,101170.72
2023-02-21T16:13:12.812Z,101164.53
2023-02-21T16:15:40.758Z,101162.63
2023-02-21T16:18:09.578Z,101164.53
2023-02-21T16:20:38.705Z,101167.88
2023-02-21T16:23:20.386Z,101172.78
2023-02-21T16:25:55.896Z,101165.47
2023-02-21T16:28:22.406Z,101154.41
2023-02-21T16:30:49.271Z,101171.19
2023-02-21T16:33:17.506Z,101161.50
2023-02-21T16:35:44.187Z,101163.09
2023-02-21T16:38:15.547Z,101168.81
2023-02-21T16:40:42.120Z,101166.44
2023-02-21T16:43:16.949Z,101180.72
2023-02-21T16:45:43.509Z,101165.66
2023-02-21T16:48:16.321Z,101172.78
2023-02-21T16:50:43.947Z,101170.72
2023-02-21T16:53:15.281Z,101178.03
2023-02-21T16:55:42.629Z,101182.16
2023-02-21T16:58:25.974Z,101188.34
2023-02-21T17:00:55.098Z,101183.25
2023-02-21T17:03:21.639Z,101184.56
2023-02-21T17:05:49.960Z,101192.16
2023-02-21T17:08:16.381Z,101187.41
2023-02-21T17:10:42.896Z,101194.38
2023-02-21T17:13:09.335Z,101194.69
2023-02-21T17:15:35.877Z,101209.63
2023-02-21T17:18:02.904Z,101204.56
2023-02-21T17:20:29.800Z,101198.97
2023-02-21T17:22:58.369Z,101203.59
2023-02-21T17:25:25.670Z,101209.63
2023-02-21T17:27:52.483Z,101216.94
2023-02-21T17:30:21.097Z,101222.31
2023-02-21T17:32:47.731Z,101224.53
2023-02-21T17:35:15.751Z,101229.31
2023-02-21T17:37:43.523Z,101225.47
2023-02-21T17:40:11.378Z,101233.88
2023-02-21T17:42:39.546Z,101233.88
2023-02-21T17:45:06.827Z,101234.34
2023-02-21T17:47:35.275Z,101244.19
2023-02-21T17:50:03.717Z,101244.19
2023-02-21T17:52:31.035Z,101244.34
2023-02-21T17:54:57.766Z,101241.19
2023-02-21T17:57:24.296Z,101243.56
2023-02-21T17:59:50.726Z,101244.81
2023-02-21T18:02:19.287Z,101243.56
2023-02-21T18:04:48.652Z,101246.09
2023-02-21T18:07:15.163Z,101246.09
2023-02-21T18:09:41.705Z,101244.81
2023-02-21T18:12:08.323Z,101240.69
2023-02-21T18:14:35.000Z,101232.59
2023-02-21T18:17:02.863Z,101241.66
2023-02-21T18:19:31.026Z,101248.63
2023-02-21T18:21:58.178Z,101236.72
2023-02-21T18:24:26.718Z,101257.19
2023-02-21T18:26:53.440Z,101256.88
2023-02-21T18:29:21.731Z,101251.94
2023-02-21T18:31:55.786Z,101245.78
2023-02-21T18:34:23.329Z,101251.31
2023-02-21T18:36:52.090Z,101255.28
2023-02-21T18:39:21.512Z,101267.16
2023-02-21T18:41:48.700Z,101263.53
2023-02-21T18:44:15.336Z,101255.75
2023-02-21T18:46:50.313Z,101254.66
2023-02-21T18:49:17.175Z,101250.03
2023-02-21T18:51:44.088Z,101261.97
2023-02-21T18:54:10.570Z,101257.19
2023-02-21T18:56:37.004Z,101261.63
2023-02-21T18:59:03.651Z,101263.69
2023-02-21T19:01:31.002Z,101254.94
2023-02-21T19:03:57.659Z,101254.94
2023-02-21T19:06:25.780Z,101262.91
2023-02-21T19:08:54.201Z,101252.56
2023-02-21T19:11:21.048Z,101259.72
2023-02-21T19:13:49.807Z,101258.91
2023-02-21T19:16:19.477Z,101254.31
2023-02-21T19:18:47.217Z,101264.63
2023-02-21T19:21:14.610Z,101259.09
2023-02-21T19:23:42.574Z,101260.34
2023-02-21T19:26:09.308Z,101263.50
2023-02-21T19:28:39.072Z,101277.78
2023-02-21T19:31:08.042Z,101265.72
2023-02-21T19:33:35.244Z,101270.19
2023-02-21T19:36:06.086Z,101271.13
2023-02-21T19:38:32.661Z,101265.53
2023-02-21T19:40:59.326Z,101271.44
2023-02-21T19:43:26.193Z,101266.66
2023-02-21T19:45:52.848Z,101278.75
2023-02-21T19:48:21.377Z,101277.16
2023-02-21T19:50:48.840Z,101282.84
2023-02-21T19:53:15.528Z,101287.78
2023-02-21T19:55:42.130Z,101284.13
2023-02-21T19:58:09.258Z,101288.25
2023-02-21T20:00:37.791Z,101291.09
2023-02-21T20:03:04.408Z,101273.63
2023-02-21T20:05:33.859Z,101264.72
2023-02-21T20:08:10.279Z,101275.19
2023-02-21T20:10:52.715Z,101258.66
2023-02-21T20:13:40.200Z,101249.00
2023-02-21T20:16:18.448Z,101276.13
2023-02-21T20:18:45.424Z,101289.78
2023-02-21T20:21:23.901Z,101294.56
2023-02-21T20:23:51.654Z,101286.63
2023-02-21T20:26:18.427Z,101281.84
2023-02-21T20:28:47.769Z,101301.88
2023-02-21T20:31:15.321Z,101274.69
2023-02-21T20:33:42.396Z,101269.13
2023-02-21T20:36:09.762Z,101270.75
2023-02-21T20:38:48.567Z,101293.00
2023-02-21T20:41:38.766Z,101248.81
2023-02-21T20:44:05.588Z,101271.38
2023-02-21T20:46:34.942Z,101265.97
2023-02-21T20:49:03.124Z,101282.03
2023-02-21T20:51:38.870Z,101283.13
2023-02-21T20:54:06.123Z,101289.16
2023-02-21T20:56:39.498Z,101289.78
2023-02-21T20:59:15.687Z,101298.84
2023-02-21T21:01:48.331Z,101296.78
2023-02-21T21:04:21.732Z,101288.69
2023-02-21T21:06:48.690Z,101288.38
2023-02-21T21:09:17.747Z,101287.91
2023-02-21T21:11:45.144Z,101278.84
2023-02-21T21:14:13.393Z,101292.78
2023-02-21T21:16:41.973Z,101297.72
2023-02-21T21:19:08.858Z,101281.22
2023-02-21T21:21:37.742Z,101280.75
2023-02-21T21:24:07.063Z,101285.31
2023-02-21T21:26:34.024Z,101274.84
2023-02-21T21:29:01.372Z,101285.16
2023-02-21T21:31:27.934Z,101284.06
2023-02-21T21:33:56.295Z,101289.78
2023-02-21T21:36:23.361Z,101266.25
2023-02-21T21:38:49.797Z,101288.50
2023-02-21T21:41:16.957Z,101284.53
2023-02-21T21:43:45.441Z,101281.22
2023-02-21T21:46:13.541Z,101286.13
2023-02-21T21:48:44.614Z,101286.56
2023-02-21T21:51:13.935Z,101283.72
2023-02-21T21:53:41.462Z,101290.25
2023-02-21T21:56:08.446Z,101290.25
2023-02-21T21:58:35.946Z,101287.88
2023-02-21T22:01:05.388Z,101286.25
2023-02-21T22:03:32.852Z,101287.88
2023-02-21T22:06:00.750Z,101282.63
2023-02-21T22:08:28.861Z,101277.19
2023-02-21T22:10:56.572Z,101276.13
2023-02-21T22:13:28.889Z,101274.06
2023-02-21T22:15:56.205Z,101278.97
2023-02-21T22:18:24.473Z,101278.97
2023-02-21T22:20:51.580Z,101272.16
2023-02-21T22:23:24.437Z,101272.47
2023-02-21T22:25:52.217Z,101276.59
2023-02-21T22:28:19.495Z,101271.69
2023-02-21T22:30:46.431Z,101275.78
2023-02-21T22:33:19.725Z,101264.53
2023-02-21T22:35:50.134Z,101274.69
2023-02-21T22:38:44.069Z,101275.00
2023-02-21T22:41:22.444Z,101234.47
2023-02-21T22:43:50.633Z,101229.69
2023-02-21T22:46:23.132Z,101271.84
2023-02-21T22:48:55.424Z,101229.69
2023-02-21T22:51:41.051Z,101237.63
2023-02-21T22:54:43.310Z,101228.41
2023-02-21T23:04:31.036Z,101261.81
2023-02-21T23:06:59.547Z,101263.06
2023-02-21T23:09:35.954Z,101239.88
2023-02-21T23:12:03.955Z,101266.25
2023-02-21T23:14:37.339Z,101221.91
2023-02-21T23:17:18.593Z,101254.06
2023-02-21T23:19:53.373Z,101215.22
2023-02-21T23:22:33.352Z,101244.50
2023-02-21T23:25:27.023Z,101234.84
2023-02-21T23:28:19.351Z,101228.59
2023-02-21T23:30:56.219Z,101227.00
2023-02-21T23:36:41.000Z,101236.22
2023-02-21T23:39:17.282Z,101215.09
2023-02-21T23:41:51.304Z,101253.72
2023-02-21T23:48:31.262Z,101247.72
2023-02-21T23:58:32.704Z,101202.25
